sensor_id;sensor_type;location;lat;lon;timestamp;pressure;altitude;pressure_sealevel;temperature;humidity
50268;BME280;36153;50.960;6.220;2023-04-22T00:01:18;99842.47;;;12.31;65.10
50268;BME280;36153;50.960;6.220;2023-04-22T00:04:19;99838.94;;;12.39;64.95
50268;BME280;36153;50.960;6.220;2023-04-22T00:07:20;99839.88;;;12.26;64.57
50268;BME280;36153;50.960;6.220;2023-04-22T00:10:20;99833.81;;;12.25;64.55
50268;BME280;36153;50.960;6.220;2023-04-22T00:13:21;99832.09;;;12.21;64.46
50268;BME280;36153;50.960;6.220;2023-04-22T00:16:21;99828.63;;;12.15;64.57
50268;BME280;36153;50.960;6.220;2023-04-22T00:19:22;99825.19;;;12.14;64.82
50268;BME280;36153;50.960;6.220;2023-04-22T00:22:23;99827.78;;;12.16;64.98
50268;BME280;36153;50.960;6.220;2023-04-22T00:25:23;99825.13;;;12.19;64.77
50268;BME280;36153;50.960;6.220;2023-04-22T00:28:24;99826.00;;;12.18;64.80
50268;BME280;36153;50.960;6.220;2023-04-22T00:31:24;99835.59;;;12.16;65.00
50268;BME280;36153;50.960;6.220;2023-04-22T00:34:25;99824.31;;;12.12;64.98
50268;BME280;36153;50.960;6.220;2023-04-22T00:37:25;99830.41;;;12.11;65.50
50268;BME280;36153;50.960;6.220;2023-04-22T00:40:26;99822.59;;;12.06;65.38
50268;BME280;36153;50.960;6.220;2023-04-22T00:43:26;99829.53;;;12.10;65.66
50268;BME280;36153;50.960;6.220;2023-04-22T00:46:27;99822.56;;;12.16;65.64
50268;BME280;36153;50.960;6.220;2023-04-22T00:49:27;99830.34;;;12.23;65.75
50268;BME280;36153;50.960;6.220;2023-04-22T00:52:28;99825.97;;;12.25;65.91
50268;BME280;36153;50.960;6.220;2023-04-22T00:55:29;99818.94;;;12.37;65.78
50268;BME280;36153;50.960;6.220;2023-04-22T00:58:29;99825.00;;;12.42;65.45
50268;BME280;36153;50.960;6.220;2023-04-22T01:01:30;99821.53;;;12.38;65.69
50268;BME280;36153;50.960;6.220;2023-04-22T01:04:31;99818.88;;;12.41;65.32
50268;BME280;36153;50.960;6.220;2023-04-22T01:07:31;99816.34;;;12.35;65.27
50268;BME280;36153;50.960;6.220;2023-04-22T01:10:31;99808.47;;;12.38;65.14
50268;BME280;36153;50.960;6.220;2023-04-22T01:13:32;99808.50;;;12.35;65.09
50268;BME280;36153;50.960;6.220;2023-04-22T01:16:32;99800.66;;;12.38;65.22
50268;BME280;36153;50.960;6.220;2023-04-22T01:19:35;99798.00;;;12.46;64.98
50268;BME280;36153;50.960;6.220;2023-04-22T01:22:41;99801.63;;;12.26;65.38
50268;BME280;36153;50.960;6.220;2023-04-22T01:25:43;99805.06;;;12.33;65.38
50268;BME280;36153;50.960;6.220;2023-04-22T01:28:44;99808.47;;;12.40;65.32
50268;BME280;36153;50.960;6.220;2023-04-22T01:31:45;99813.78;;;12.29;65.56
50268;BME280;36153;50.960;6.220;2023-04-22T01:34:45;99808.63;;;12.18;66.08
50268;BME280;36153;50.960;6.220;2023-04-22T01:37:46;99807.78;;;12.13;66.60
50268;BME280;36153;50.960;6.220;2023-04-22T01:40:46;99810.41;;;12.11;66.61
50268;BME280;36153;50.960;6.220;2023-04-22T01:43:47;99812.06;;;12.22;66.80
50268;BME280;36153;50.960;6.220;2023-04-22T01:46:48;99809.41;;;12.31;66.55
50268;BME280;36153;50.960;6.220;2023-04-22T01:49:48;99806.78;;;12.33;66.15
50268;BME280;36153;50.960;6.220;2023-04-22T01:52:49;99805.06;;;12.33;66.29
50268;BME280;36153;50.960;6.220;2023-04-22T01:55:49;99804.13;;;12.36;65.95
50268;BME280;36153;50.960;6.220;2023-04-22T01:58:50;99808.47;;;12.38;65.95
50268;BME280;36153;50.960;6.220;2023-04-22T02:01:50;99801.47;;;12.46;65.68
50268;BME280;36153;50.960;6.220;2023-04-22T02:04:51;99792.75;;;12.48;65.45
50268;BME280;36153;50.960;6.220;2023-04-22T02:07:52;99801.53;;;12.40;65.45
50268;BME280;36153;50.960;6.220;2023-04-22T02:10:52;99805.03;;;12.35;65.60
50268;BME280;36153;50.960;6.220;2023-04-22T02:13:53;99804.13;;;12.42;65.31
50268;BME280;36153;50.960;6.220;2023-04-22T02:16:53;99798.00;;;12.41;65.32
50268;BME280;36153;50.960;6.220;2023-04-22T02:19:54;99795.34;;;12.49;65.45
50268;BME280;36153;50.960;6.220;2023-04-22T02:22:54;99800.59;;;12.48;65.32
50268;BME280;36153;50.960;6.220;2023-04-22T02:25:54;99793.59;;;12.50;65.56
50268;BME280;36153;50.960;6.220;2023-04-22T02:28:55;99789.22;;;12.55;65.28
50268;BME280;36153;50.960;6.220;2023-04-22T02:31:55;99780.56;;;12.53;65.61
50268;BME280;36153;50.960;6.220;2023-04-22T02:34:56;99777.91;;;12.54;65.33
50268;BME280;36153;50.960;6.220;2023-04-22T02:37:56;99777.88;;;12.59;65.04
50268;BME280;36153;50.960;6.220;2023-04-22T02:40:56;99776.09;;;12.64;65.30
50268;BME280;36153;50.960;6.220;2023-04-22T02:43:57;99769.19;;;12.58;65.54
50268;BME280;36153;50.960;6.220;2023-04-22T02:46:57;99773.50;;;12.59;65.62
50268;BME280;36153;50.960;6.220;2023-04-22T02:49:57;99764.81;;;12.59;65.36
50268;BME280;36153;50.960;6.220;2023-04-22T02:52:58;99765.66;;;12.62;65.47
50268;BME280;36153;50.960;6.220;2023-04-22T02:55:58;99767.47;;;12.54;65.63
50268;BME280;36153;50.960;6.220;2023-04-22T02:58:58;99763.06;;;12.58;65.33
50268;BME280;36153;50.960;6.220;2023-04-22T03:01:59;99761.38;;;12.54;65.41
50268;BME280;36153;50.960;6.220;2023-04-22T03:04:59;99759.63;;;12.56;65.42
50268;BME280;36153;50.960;6.220;2023-04-22T03:08:00;99757.84;;;12.58;65.23
50268;BME280;36153;50.960;6.220;2023-04-22T03:11:00;99754.44;;;12.53;65.33
50268;BME280;36153;50.960;6.220;2023-04-22T03:14:00;99750.13;;;12.49;65.44
50268;BME280;36153;50.960;6.220;2023-04-22T03:17:01;99745.69;;;12.55;65.31
50268;BME280;36153;50.960;6.220;2023-04-22T03:20:01;99744.00;;;12.50;65.27
50268;BME280;36153;50.960;6.220;2023-04-22T03:23:01;99743.16;;;12.48;65.35
50268;BME280;36153;50.960;6.220;2023-04-22T03:26:02;99742.28;;;12.49;65.38
50268;BME280;36153;50.960;6.220;2023-04-22T03:29:03;99746.66;;;12.46;65.48
50268;BME280;36153;50.960;6.220;2023-04-22T03:32:03;99748.41;;;12.46;65.30
50268;BME280;36153;50.960;6.220;2023-04-22T03:35:04;99745.75;;;12.51;65.57
50268;BME280;36153;50.960;6.220;2023-04-22T03:38:04;99731.88;;;12.47;65.37
50268;BME280;36153;50.960;6.220;2023-04-22T03:41:04;99727.44;;;12.52;65.37
50268;BME280;36153;50.960;6.220;2023-04-22T03:44:05;99720.59;;;12.42;65.52
50268;BME280;36153;50.960;6.220;2023-04-22T03:47:05;99711.84;;;12.46;65.53
50268;BME280;36153;50.960;6.220;2023-04-22T03:50:06;99704.06;;;12.40;65.80
50268;BME280;36153;50.960;6.220;2023-04-22T03:53:06;99704.94;;;12.42;65.83
50268;BME280;36153;50.960;6.220;2023-04-22T03:56:07;99699.63;;;12.50;65.64
50268;BME280;36153;50.960;6.220;2023-04-22T03:59:07;99697.88;;;12.52;65.52
50268;BME280;36153;50.960;6.220;2023-04-22T04:02:07;99700.50;;;12.50;65.66
50268;BME280;36153;50.960;6.220;2023-04-22T04:05:08;99705.66;;;12.58;65.53
50268;BME280;36153;50.960;6.220;2023-04-22T04:08:10;99703.06;;;12.55;65.38
50268;BME280;36153;50.960;6.220;2023-04-22T04:11:10;99694.38;;;12.54;65.40
50268;BME280;36153;50.960;6.220;2023-04-22T04:14:11;99691.72;;;12.59;65.34
50268;BME280;36153;50.960;6.220;2023-04-22T04:17:11;99694.31;;;12.59;65.24
50268;BME280;36153;50.960;6.220;2023-04-22T04:20:14;99686.44;;;12.63;65.31
50268;BME280;36153;50.960;6.220;2023-04-22T04:23:15;99686.44;;;12.65;65.08
50268;BME280;36153;50.960;6.220;2023-04-22T04:26:15;99697.00;;;12.53;65.58
50268;BME280;36153;50.960;6.220;2023-04-22T04:29:17;99690.00;;;12.56;65.30
50268;BME280;36153;50.960;6.220;2023-04-22T04:32:20;99689.09;;;12.59;65.54
50268;BME280;36153;50.960;6.220;2023-04-22T04:35:21;99683.06;;;12.57;65.43
50268;BME280;36153;50.960;6.220;2023-04-22T04:38:22;99678.75;;;12.53;65.69
50268;BME280;36153;50.960;6.220;2023-04-22T04:41:24;99676.13;;;12.50;66.06
50268;BME280;36153;50.960;6.220;2023-04-22T04:44:27;99679.53;;;12.58;65.86
50268;BME280;36153;50.960;6.220;2023-04-22T04:47:30;99675.19;;;12.58;65.76
50268;BME280;36153;50.960;6.220;2023-04-22T04:50:33;99671.63;;;12.66;65.58
50268;BME280;36153;50.960;6.220;2023-04-22T04:53:33;99680.22;;;12.77;65.63
50268;BME280;36153;50.960;6.220;2023-04-22T04:56:34;99668.88;;;12.79;65.36
50268;BME280;36153;50.960;6.220;2023-04-22T04:59:34;99667.06;;;12.88;65.38
50268;BME280;36153;50.960;6.220;2023-04-22T05:02:35;99671.25;;;13.00;65.01
50268;BME280;36153;50.960;6.220;2023-04-22T05:05:35;99669.47;;;13.05;65.13
50268;BME280;36153;50.960;6.220;2023-04-22T05:08:39;99671.81;;;13.25;64.80
50268;BME280;36153;50.960;6.220;2023-04-22T05:11:40;99673.53;;;13.26;64.74
50268;BME280;36153;50.960;6.220;2023-04-22T05:14:40;99677.81;;;13.33;64.54
50268;BME280;36153;50.960;6.220;2023-04-22T05:17:42;99675.94;;;13.46;64.11
50268;BME280;36153;50.960;6.220;2023-04-22T05:20:42;99688.84;;;13.57;64.12
50268;BME280;36153;50.960;6.220;2023-04-22T05:23:42;99683.50;;;13.66;64.13
50268;BME280;36153;50.960;6.220;2023-04-22T05:26:43;99685.94;;;13.78;63.97
50268;BME280;36153;50.960;6.220;2023-04-22T05:29:43;99682.16;;;13.98;64.06
50268;BME280;36153;50.960;6.220;2023-04-22T05:32:44;99680.19;;;14.11;63.74
50268;BME280;36153;50.960;6.220;2023-04-22T05:35:44;99677.31;;;14.26;63.47
50268;BME280;36153;50.960;6.220;2023-04-22T05:38:47;99677.97;;;14.41;63.47
50268;BME280;36153;50.960;6.220;2023-04-22T05:41:48;99681.09;;;14.60;63.44
50268;BME280;36153;50.960;6.220;2023-04-22T05:44:48;99678.22;;;14.77;63.02
50268;BME280;36153;50.960;6.220;2023-04-22T05:47:48;99681.13;;;15.07;62.79
50268;BME280;36153;50.960;6.220;2023-04-22T05:50:49;99672.16;;;15.18;62.07
50268;BME280;36153;50.960;6.220;2023-04-22T05:53:49;99669.28;;;15.29;61.88
50268;BME280;36153;50.960;6.220;2023-04-22T05:56:51;99680.59;;;15.33;61.69
50268;BME280;36153;50.960;6.220;2023-04-22T05:59:52;99676.13;;;15.38;61.73
50268;BME280;36153;50.960;6.220;2023-04-22T06:02:52;99682.06;;;15.45;61.26
50268;BME280;36153;50.960;6.220;2023-04-22T06:05:53;99679.22;;;15.56;61.25
50268;BME280;36153;50.960;6.220;2023-04-22T06:08:53;99687.63;;;15.72;60.66
50268;BME280;36153;50.960;6.220;2023-04-22T06:11:53;99684.47;;;15.95;60.28
50268;BME280;36153;50.960;6.220;2023-04-22T06:14:54;99679.81;;;16.08;60.41
50268;BME280;36153;50.960;6.220;2023-04-22T06:17:54;99678.72;;;16.16;60.02
50268;BME280;36153;50.960;6.220;2023-04-22T06:20:55;99673.31;;;16.23;59.08
50268;BME280;36153;50.960;6.220;2023-04-22T06:23:55;99668.72;;;16.31;58.91
50268;BME280;36153;50.960;6.220;2023-04-22T06:26:55;99659.91;;;16.33;58.92
50268;BME280;36153;50.960;6.220;2023-04-22T06:29:57;99663.63;;;16.25;58.99
50268;BME280;36153;50.960;6.220;2023-04-22T06:32:57;99659.38;;;16.20;59.47
50268;BME280;36153;50.960;6.220;2023-04-22T06:35:58;99662.88;;;16.19;59.62
50268;BME280;36153;50.960;6.220;2023-04-22T06:38:58;99668.66;;;16.67;59.80
50268;BME280;36153;50.960;6.220;2023-04-22T06:41:59;99669.19;;;17.43;59.16
50268;BME280;36153;50.960;6.220;2023-04-22T06:45:02;99668.72;;;17.86;56.15
50268;BME280;36153;50.960;6.220;2023-04-22T06:48:02;99670.97;;;18.25;56.47
50268;BME280;36153;50.960;6.220;2023-04-22T06:51:03;99664.19;;;18.18;55.08
50268;BME280;36153;50.960;6.220;2023-04-22T06:54:03;99667.84;;;18.14;54.96
50268;BME280;36153;50.960;6.220;2023-04-22T06:57:03;99666.47;;;18.29;55.27
50268;BME280;36153;50.960;6.220;2023-04-22T07:00:05;99663.56;;;18.37;54.78
50268;BME280;36153;50.960;6.220;2023-04-22T07:03:07;99662.91;;;18.57;55.13
50268;BME280;36153;50.960;6.220;2023-04-22T07:06:08;99650.78;;;18.26;53.54
50268;BME280;36153;50.960;6.220;2023-04-22T07:09:08;99660.25;;;18.32;54.35
50268;BME280;36153;50.960;6.220;2023-04-22T07:12:09;99651.81;;;18.47;54.74
50268;BME280;36153;50.960;6.220;2023-04-22T07:15:09;99652.28;;;18.84;54.47
50268;BME280;36153;50.960;6.220;2023-04-22T07:18:10;99658.00;;;18.97;54.64
50268;BME280;36153;50.960;6.220;2023-04-22T07:21:10;99652.09;;;19.14;54.39
50268;BME280;36153;50.960;6.220;2023-04-22T07:24:11;99638.03;;;19.13;53.19
50268;BME280;36153;50.960;6.220;2023-04-22T07:27:12;99636.03;;;19.20;54.04
50268;BME280;36153;50.960;6.220;2023-04-22T07:30:12;99633.06;;;19.29;53.10
50268;BME280;36153;50.960;6.220;2023-04-22T07:33:15;99635.75;;;19.50;52.51
50268;BME280;36153;50.960;6.220;2023-04-22T07:36:15;99641.31;;;19.66;53.13
50268;BME280;36153;50.960;6.220;2023-04-22T07:39:16;99645.91;;;19.60;52.16
50268;BME280;36153;50.960;6.220;2023-04-22T07:42:16;99636.81;;;19.68;51.90
50268;BME280;36153;50.960;6.220;2023-04-22T07:45:17;99640.47;;;19.87;51.25
50268;BME280;36153;50.960;6.220;2023-04-22T07:48:18;99633.00;;;20.40;51.37
50268;BME280;36153;50.960;6.220;2023-04-22T07:51:18;99630.06;;;20.68;49.80
50268;BME280;36153;50.960;6.220;2023-04-22T07:54:19;99623.75;;;20.50;49.38
50268;BME280;36153;50.960;6.220;2023-04-22T07:57:19;99618.59;;;20.68;48.98
50268;BME280;36153;50.960;6.220;2023-04-22T08:00:21;99611.84;;;20.81;49.48
50268;BME280;36153;50.960;6.220;2023-04-22T08:03:22;99608.00;;;21.26;48.66
50268;BME280;36153;50.960;6.220;2023-04-22T08:06:22;99614.72;;;21.14;48.52
50268;BME280;36153;50.960;6.220;2023-04-22T08:09:23;99617.31;;;21.16;48.44
50268;BME280;36153;50.960;6.220;2023-04-22T08:12:23;99616.44;;;21.35;48.48
50268;BME280;36153;50.960;6.220;2023-04-22T08:15:23;99601.13;;;21.41;47.85
50268;BME280;36153;50.960;6.220;2023-04-22T08:18:24;99604.34;;;21.29;47.49
50268;BME280;36153;50.960;6.220;2023-04-22T08:21:24;99597.84;;;21.55;47.69
50268;BME280;36153;50.960;6.220;2023-04-22T08:24:26;99601.22;;;21.76;47.74
50268;BME280;36153;50.960;6.220;2023-04-22T08:27:26;99601.72;;;22.02;47.05
50268;BME280;36153;50.960;6.220;2023-04-22T08:30:27;99606.94;;;22.21;46.34
50268;BME280;36153;50.960;6.220;2023-04-22T08:33:27;99604.16;;;22.42;46.58
50268;BME280;36153;50.960;6.220;2023-04-22T08:36:29;99596.31;;;22.21;45.68
50268;BME280;36153;50.960;6.220;2023-04-22T08:39:29;99593.88;;;22.36;46.69
50268;BME280;36153;50.960;6.220;2023-04-22T08:42:30;99587.97;;;22.64;47.22
50268;BME280;36153;50.960;6.220;2023-04-22T08:45:30;99592.59;;;22.60;46.22
50268;BME280;36153;50.960;6.220;2023-04-22T08:48:33;99585.97;;;22.16;46.10
50268;BME280;36153;50.960;6.220;2023-04-22T08:51:34;99589.41;;;22.19;46.74
50268;BME280;36153;50.960;6.220;2023-04-22T08:54:35;99582.69;;;22.11;46.67
50268;BME280;36153;50.960;6.220;2023-04-22T08:57:39;99582.47;;;22.51;46.32
50268;BME280;36153;50.960;6.220;2023-04-22T09:00:43;99580.53;;;22.37;45.72
50268;BME280;36153;50.960;6.220;2023-04-22T09:03:44;99580.50;;;22.55;45.52
50268;BME280;36153;50.960;6.220;2023-04-22T09:06:44;99574.66;;;22.97;45.45
50268;BME280;36153;50.960;6.220;2023-04-22T09:09:45;99566.53;;;23.64;44.18
50268;BME280;36153;50.960;6.220;2023-04-22T09:12:48;99567.09;;;24.16;42.87
50268;BME280;36153;50.960;6.220;2023-04-22T09:15:50;99568.41;;;24.68;41.85
50268;BME280;36153;50.960;6.220;2023-04-22T09:18:50;99566.78;;;24.51;41.17
50268;BME280;36153;50.960;6.220;2023-04-22T09:21:51;99561.94;;;24.72;38.54
50268;BME280;36153;50.960;6.220;2023-04-22T09:24:51;99572.09;;;24.94;40.30
50268;BME280;36153;50.960;6.220;2023-04-22T09:27:54;99590.13;;;25.18;39.68
50268;BME280;36153;50.960;6.220;2023-04-22T09:30:59;99585.66;;;25.60;37.84
50268;BME280;36153;50.960;6.220;2023-04-22T09:34:00;99583.66;;;25.08;37.95
50268;BME280;36153;50.960;6.220;2023-04-22T09:37:00;99578.81;;;24.42;38.89
50268;BME280;36153;50.960;6.220;2023-04-22T09:40:01;99585.72;;;24.75;38.79
50268;BME280;36153;50.960;6.220;2023-04-22T09:43:06;99583.22;;;24.86;38.34
50268;BME280;36153;50.960;6.220;2023-04-22T09:46:08;99584.66;;;24.92;38.18
50268;BME280;36153;50.960;6.220;2023-04-22T09:49:09;99584.06;;;25.01;38.27
50268;BME280;36153;50.960;6.220;2023-04-22T09:52:09;99591.66;;;25.22;38.00
50268;BME280;36153;50.960;6.220;2023-04-22T09:55:10;99589.34;;;25.45;37.85
50268;BME280;36153;50.960;6.220;2023-04-22T09:58:13;99588.25;;;25.75;37.26
50268;BME280;36153;50.960;6.220;2023-04-22T10:01:13;99585.59;;;26.02;37.09
50268;BME280;36153;50.960;6.220;2023-04-22T10:04:55;99585.31;;;25.79;36.17
50268;BME280;36153;50.960;6.220;2023-04-22T10:08:47;99585.38;;;25.09;38.35
50268;BME280;36153;50.960;6.220;2023-04-22T10:11:53;99587.66;;;25.56;37.76
50268;BME280;36153;50.960;6.220;2023-04-22T10:14:53;99590.28;;;25.29;37.58
50268;BME280;36153;50.960;6.220;2023-04-22T10:17:54;99585.81;;;25.84;36.56
50268;BME280;36153;50.960;6.220;2023-04-22T10:20:56;99591.94;;;26.91;34.78
50268;BME280;36153;50.960;6.220;2023-04-22T10:23:58;99597.59;;;26.73;35.26
50268;BME280;36153;50.960;6.220;2023-04-22T10:27:02;99589.03;;;26.17;35.45
50268;BME280;36153;50.960;6.220;2023-04-22T10:30:07;99594.38;;;26.43;35.73
50268;BME280;36153;50.960;6.220;2023-04-22T10:36:20;99591.81;;;26.54;35.09
50268;BME280;36153;50.960;6.220;2023-04-22T10:39:21;99593.19;;;26.60;34.59
50268;BME280;36153;50.960;6.220;2023-04-22T10:42:22;99581.03;;;25.77;35.68
50268;BME280;36153;50.960;6.220;2023-04-22T10:45:24;99575.72;;;26.43;35.51
50268;BME280;36153;50.960;6.220;2023-04-22T10:48:47;99579.50;;;27.16;34.52
50268;BME280;36153;50.960;6.220;2023-04-22T10:51:52;99576.81;;;27.53;34.38
50268;BME280;36153;50.960;6.220;2023-04-22T10:57:53;99576.22;;;26.99;34.39
50268;BME280;36153;50.960;6.220;2023-04-22T11:00:53;99571.72;;;27.85;33.79
50268;BME280;36153;50.960;6.220;2023-04-22T11:04:21;99558.66;;;28.86;31.39
50268;BME280;36153;50.960;6.220;2023-04-22T11:10:43;99565.22;;;28.93;32.93
50268;BME280;36153;50.960;6.220;2023-04-22T11:13:46;99563.00;;;28.53;32.67
50268;BME280;36153;50.960;6.220;2023-04-22T11:16:46;99563.81;;;28.08;33.28
50268;BME280;36153;50.960;6.220;2023-04-22T11:19:47;99569.69;;;27.03;34.14
50268;BME280;36153;50.960;6.220;2023-04-22T11:22:50;99573.25;;;26.91;34.60
50268;BME280;36153;50.960;6.220;2023-04-22T11:25:54;99586.50;;;26.80;34.19
50268;BME280;36153;50.960;6.220;2023-04-22T11:28:58;99587.16;;;26.70;34.19
50268;BME280;36153;50.960;6.220;2023-04-22T11:31:59;99592.56;;;25.90;35.61
50268;BME280;36153;50.960;6.220;2023-04-22T11:35:05;99588.53;;;25.01;36.45
50268;BME280;36153;50.960;6.220;2023-04-22T11:38:05;99591.97;;;25.03;37.13
50268;BME280;36153;50.960;6.220;2023-04-22T11:41:07;99586.78;;;25.43;36.91
50268;BME280;36153;50.960;6.220;2023-04-22T11:44:08;99589.53;;;25.69;36.39
50268;BME280;36153;50.960;6.220;2023-04-22T11:47:08;99590.09;;;26.01;35.95
50268;BME280;36153;50.960;6.220;2023-04-22T11:50:09;99593.88;;;25.43;36.07
50268;BME280;36153;50.960;6.220;2023-04-22T11:53:19;99601.25;;;25.39;36.56
50268;BME280;36153;50.960;6.220;2023-04-22T11:56:20;99597.16;;;25.19;36.17
50268;BME280;36153;50.960;6.220;2023-04-22T11:59:23;99605.38;;;25.01;36.79
50268;BME280;36153;50.960;6.220;2023-04-22T12:02:24;99598.28;;;25.29;36.52
50268;BME280;36153;50.960;6.220;2023-04-22T12:05:35;99601.34;;;25.37;36.63
50268;BME280;36153;50.960;6.220;2023-04-22T12:08:37;99602.91;;;25.82;36.00
50268;BME280;36153;50.960;6.220;2023-04-22T12:11:44;99595.84;;;25.68;36.48
50268;BME280;36153;50.960;6.220;2023-04-22T12:14:45;99604.13;;;25.07;36.67
50268;BME280;36153;50.960;6.220;2023-04-22T12:17:49;99610.78;;;24.71;37.04
50268;BME280;36153;50.960;6.220;2023-04-22T12:20:49;99614.69;;;24.20;37.49
50268;BME280;36153;50.960;6.220;2023-04-22T12:23:53;99619.06;;;23.75;38.90
50268;BME280;36153;50.960;6.220;2023-04-22T12:26:53;99618.38;;;23.72;39.10
50268;BME280;36153;50.960;6.220;2023-04-22T12:29:55;99622.00;;;23.39;39.29
50268;BME280;36153;50.960;6.220;2023-04-22T12:32:56;99616.38;;;23.11;39.81
50268;BME280;36153;50.960;6.220;2023-04-22T12:35:56;99613.94;;;23.24;39.61
50268;BME280;36153;50.960;6.220;2023-04-22T12:38:57;99616.16;;;23.48;39.65
50268;BME280;36153;50.960;6.220;2023-04-22T12:41:57;99612.66;;;23.63;40.01
50268;BME280;36153;50.960;6.220;2023-04-22T12:44:58;99621.09;;;23.70;39.67
50268;BME280;36153;50.960;6.220;2023-04-22T12:47:58;99613.84;;;23.42;40.19
50268;BME280;36153;50.960;6.220;2023-04-22T12:50:59;99611.56;;;23.35;40.31
50268;BME280;36153;50.960;6.220;2023-04-22T12:53:59;99611.63;;;23.18;40.21
50268;BME280;36153;50.960;6.220;2023-04-22T12:57:00;99615.81;;;23.22;40.75
50268;BME280;36153;50.960;6.220;2023-04-22T13:00:01;99619.69;;;23.48;40.50
50268;BME280;36153;50.960;6.220;2023-04-22T13:03:03;99623.88;;;23.52;40.42
50268;BME280;36153;50.960;6.220;2023-04-22T13:06:03;99618.69;;;23.97;39.66
50268;BME280;36153;50.960;6.220;2023-04-22T13:09:04;99608.34;;;24.23;39.04
50268;BME280;36153;50.960;6.220;2023-04-22T13:12:05;99615.56;;;24.35;39.17
50268;BME280;36153;50.960;6.220;2023-04-22T13:15:06;99630.19;;;23.98;39.78
50268;BME280;36153;50.960;6.220;2023-04-22T13:18:07;99626.50;;;23.84;41.01
50268;BME280;36153;50.960;6.220;2023-04-22T13:21:07;99627.63;;;23.32;41.85
50268;BME280;36153;50.960;6.220;2023-04-22T13:24:07;99624.72;;;23.21;42.56
50268;BME280;36153;50.960;6.220;2023-04-22T13:27:08;99633.09;;;22.46;44.33
50268;BME280;36153;50.960;6.220;2023-04-22T13:30:09;99637.16;;;21.82;45.78
50268;BME280;36153;50.960;6.220;2023-04-22T13:33:10;99641.47;;;21.65;46.59
50268;BME280;36153;50.960;6.220;2023-04-22T13:36:11;99634.88;;;21.36;47.56
50268;BME280;36153;50.960;6.220;2023-04-22T13:39:11;99626.53;;;21.64;46.98
50268;BME280;36153;50.960;6.220;2023-04-22T13:42:12;99624.81;;;21.63;47.11
50268;BME280;36153;50.960;6.220;2023-04-22T13:45:12;99635.91;;;21.53;47.68
50268;BME280;36153;50.960;6.220;2023-04-22T13:48:13;99630.00;;;21.46;48.02
50268;BME280;36153;50.960;6.220;2023-04-22T13:51:15;99619.94;;;21.54;47.45
50268;BME280;36153;50.960;6.220;2023-04-22T13:54:15;99625.13;;;21.75;46.99
50268;BME280;36153;50.960;6.220;2023-04-22T13:57:15;99629.13;;;21.83;46.53
50268;BME280;36153;50.960;6.220;2023-04-22T14:00:17;99629.00;;;21.87;46.41
50268;BME280;36153;50.960;6.220;2023-04-22T14:03:17;99631.88;;;21.99;45.66
50268;BME280;36153;50.960;6.220;2023-04-22T14:06:18;99635.28;;;22.02;45.37
50268;BME280;36153;50.960;6.220;2023-04-22T14:09:18;99637.88;;;22.21;44.79
50268;BME280;36153;50.960;6.220;2023-04-22T14:12:19;99639.22;;;22.12;44.83
50268;BME280;36153;50.960;6.220;2023-04-22T14:15:19;99640.53;;;21.67;46.05
50268;BME280;36153;50.960;6.220;2023-04-22T14:18:19;99628.31;;;21.64;45.92
50268;BME280;36153;50.960;6.220;2023-04-22T14:21:22;99638.34;;;21.57;45.61
50268;BME280;36153;50.960;6.220;2023-04-22T14:24:22;99627.81;;;21.56;45.35
50268;BME280;36153;50.960;6.220;2023-04-22T14:27:24;99637.41;;;21.58;45.82
50268;BME280;36153;50.960;6.220;2023-04-22T14:30:24;99641.41;;;21.48;46.53
50268;BME280;36153;50.960;6.220;2023-04-22T14:33:25;99641.31;;;21.49;46.07
50268;BME280;36153;50.960;6.220;2023-04-22T14:36:26;99639.44;;;21.52;45.84
50268;BME280;36153;50.960;6.220;2023-04-22T14:39:26;99649.63;;;21.61;46.03
50268;BME280;36153;50.960;6.220;2023-04-22T14:42:27;99640.19;;;21.55;46.15
50268;BME280;36153;50.960;6.220;2023-04-22T14:45:28;99633.00;;;21.76;45.99
50268;BME280;36153;50.960;6.220;2023-04-22T14:48:29;99636.22;;;21.83;45.44
50268;BME280;36153;50.960;6.220;2023-04-22T14:51:31;99638.75;;;22.04;45.32
50268;BME280;36153;50.960;6.220;2023-04-22T14:54:32;99633.13;;;22.27;44.43
50268;BME280;36153;50.960;6.220;2023-04-22T14:57:32;99637.19;;;21.99;45.01
50268;BME280;36153;50.960;6.220;2023-04-22T15:00:32;99629.00;;;21.87;45.47
50268;BME280;36153;50.960;6.220;2023-04-22T15:03:33;99631.50;;;21.71;45.39
50268;BME280;36153;50.960;6.220;2023-04-22T15:06:34;99632.59;;;21.67;45.65
50268;BME280;36153;50.960;6.220;2023-04-22T15:09:34;99628.28;;;21.83;45.25
50268;BME280;36153;50.960;6.220;2023-04-22T15:12:35;99637.31;;;21.79;45.61
50268;BME280;36153;50.960;6.220;2023-04-22T15:15:35;99647.19;;;21.37;46.67
50268;BME280;36153;50.960;6.220;2023-04-22T15:18:35;99648.41;;;21.30;46.85
50268;BME280;36153;50.960;6.220;2023-04-22T15:21:36;99644.13;;;21.27;47.12
50268;BME280;36153;50.960;6.220;2023-04-22T15:24:36;99647.47;;;21.12;47.30
50268;BME280;36153;50.960;6.220;2023-04-22T15:27:37;99647.34;;;21.15;48.11
50268;BME280;36153;50.960;6.220;2023-04-22T15:30:38;99662.34;;;20.95;48.00
50268;BME280;36153;50.960;6.220;2023-04-22T15:33:39;99668.53;;;20.75;49.06
50268;BME280;36153;50.960;6.220;2023-04-22T15:36:41;99673.06;;;20.31;50.61
50268;BME280;36153;50.960;6.220;2023-04-22T15:39:42;99667.06;;;20.05;51.42
50268;BME280;36153;50.960;6.220;2023-04-22T15:42:43;99664.88;;;20.15;50.95
50268;BME280;36153;50.960;6.220;2023-04-22T15:45:43;99664.25;;;20.30;50.74
50268;BME280;36153;50.960;6.220;2023-04-22T15:48:44;99661.28;;;20.17;51.33
50268;BME280;36153;50.960;6.220;2023-04-22T15:51:47;99662.44;;;20.10;52.13
50268;BME280;36153;50.960;6.220;2023-04-22T15:54:48;99666.13;;;20.06;52.18
50268;BME280;36153;50.960;6.220;2023-04-22T15:57:48;99665.03;;;20.11;51.89
50268;BME280;36153;50.960;6.220;2023-04-22T16:00:49;99665.75;;;19.93;52.85
50268;BME280;36153;50.960;6.220;2023-04-22T16:03:50;99661.72;;;19.84;53.29
50268;BME280;36153;50.960;6.220;2023-04-22T16:06:50;99677.75;;;19.80;52.98
50268;BME280;36153;50.960;6.220;2023-04-22T16:09:51;99671.03;;;19.71;54.13